Saint Paul, Illinois
Current Conditions -  °F | °C
As of 1:35 PM on Friday 31 Oct 2014 (Local Time) from KSLO Reporting Station
Overcast Overcast  
Wind Chill: 38°   Ceiling: 3500
Heat Index: 45°   Visibility: 10mi
Dew Point: 31°   Wind: 17mph
Humidity: 58%   Direction: 330°NNW
Pressure: 30.22"   Gusts: 31mph
Location:  38.868°N, 88.8641°W
Report Text: KSLO 311835Z AUTO 33015G27KT 10SM BKN035 BKN042 OVC047 07/00 A3022 RMK AO2 T00741005
Loading
Personal Weather Stations






























Interactive Weather Map
Tropical Storm Tracking
New forecast layout! Learn more

10-Day Weather Forecast

Advertisements
Track Severe Weather on mobile